<?xml version="1.0" encoding="UTF-8" standalone="no" ?>
<gpx xmlns="http://www.topografix.com/GPX/1/1" xmlns:xsi="http://www.w3.org/2001/XMLSchema-instance" xsi:schemaLocation="http://www.topografix.com/GPX/1/1 http://www.topografix.com/GPX/1/1/gpx.xsd" version="1.1" creator="VisuGPX - https://www.visugpx.com">
  <metadata>
    <name>Pic du Grand Perlet (Belledonne)</name>
    <desc><![CDATA[Au départ de [b]Freydières[/b]
Recherche de passage en face Ouest du Grand Perlet.  R5
On était pas loin, faudra revenir
photos ici : [url]https://photos.app.goo.gl/bX6GjWp1CuhNYCaa6[/url]]]></desc>
  </metadata>
  <wpt lat="45.15445" lon="5.92364">
    <ele>2175.6</ele>
    <name><![CDATA[0000784]]></name>
  </wpt>
  <wpt lat="45.15478" lon="5.92438">
    <ele>2173.9</ele>
    <name><![CDATA[0000785]]></name>
  </wpt>
  <wpt lat="45.15478" lon="5.92438">
    <ele>2173.9</ele>
    <name><![CDATA[0000786]]></name>
  </wpt>
  <wpt lat="45.15533" lon="5.92629">
    <ele>2219.5</ele>
    <name><![CDATA[0000787]]></name>
  </wpt>
  <trk>
    <name><![CDATA[2026-07-07 grand perlet]]></name>
    <desc><![CDATA[<p>Type: Marche<br/>Heure de départ: 08:14 7 juil. 2026<br/>Heure d'arrivée: 16:31 7 juil. 2026<br/>Distance: 25,7 km (08:17)<br/>Temps déplacement: 05:07<br/>Vitesse moyenne: 3,10 km/h<br/>Vitesse en mouvement: 5,01 km/h<br/>Vitesse Max.: 62,54 km/h<br/>Altitude minimale: 821 m<br/>Altitude maximale: 2281 m<br/>Vitesse de montée: 499,1 m/h<br/>Vitesse de descente: 715,5 m/h<br/>Dénivelé positif: 1317 m<br/>Dénivelé négatif: 1778 m<br/>Temps de montée: 02:38<br/>Temps de descente: 02:29<br/></p><hr align="center" width="480" style="height: 2px; width: 517px"/>]]></desc>
    <extensions>
      <line xmlns="http://www.topografix.com/GPX/gpx_style/0/2">
        <color>0000FF</color>
        <width>4</width>
      </line>
    </extensions>
    <trkseg>
      <trkpt lat="45.17807" lon="5.90991">
        <ele>1359.63</ele>
        <time>2026-07-07T06:16:04.000Z</time>
      </trkpt>
      <trkpt lat="45.17789" lon="5.90981">
        <ele>1360.05</ele>
        <time>2026-07-07T06:16:30.000Z</time>
      </trkpt>
      <trkpt lat="45.17772" lon="5.90971">
        <ele>1358.61</ele>
        <time>2026-07-07T06:16:50.000Z</time>
      </trkpt>
      <trkpt lat="45.17753" lon="5.90964">
        <ele>1356.5</ele>
        <time>2026-07-07T06:17:08.000Z</time>
      </trkpt>
      <trkpt lat="45.17735" lon="5.90954">
        <ele>1359.56</ele>
        <time>2026-07-07T06:17:24.000Z</time>
      </trkpt>
      <trkpt lat="45.1772" lon="5.90936">
        <ele>1363.71</ele>
        <time>2026-07-07T06:17:38.000Z</time>
      </trkpt>
      <trkpt lat="45.17705" lon="5.90918">
        <ele>1365.91</ele>
        <time>2026-07-07T06:17:54.000Z</time>
      </trkpt>
      <trkpt lat="45.1769" lon="5.90902">
        <ele>1365.38</ele>
        <time>2026-07-07T06:18:12.000Z</time>
      </trkpt>
      <trkpt lat="45.17676" lon="5.90883">
        <ele>1367.78</ele>
        <time>2026-07-07T06:18:32.000Z</time>
      </trkpt>
      <trkpt lat="45.17662" lon="5.90865">
        <ele>1369.42</ele>
        <time>2026-07-07T06:18:50.000Z</time>
      </trkpt>
      <trkpt lat="45.17644" lon="5.90864">
        <ele>1371.46</ele>
        <time>2026-07-07T06:19:10.000Z</time>
      </trkpt>
      <trkpt lat="45.17626" lon="5.90865">
        <ele>1372.6</ele>
        <time>2026-07-07T06:19:25.999Z</time>
      </trkpt>
      <trkpt lat="45.17609" lon="5.90852">
        <ele>1375.34</ele>
        <time>2026-07-07T06:19:41.999Z</time>
      </trkpt>
      <trkpt lat="45.17596" lon="5.90832">
        <ele>1375.51</ele>
        <time>2026-07-07T06:19:57.999Z</time>
      </trkpt>
      <trkpt lat="45.17592" lon="5.90804">
        <ele>1379.19</ele>
        <time>2026-07-07T06:20:17.999Z</time>
      </trkpt>
      <trkpt lat="45.17587" lon="5.90777">
        <ele>1379.09</ele>
        <time>2026-07-07T06:20:37.999Z</time>
      </trkpt>
      <trkpt lat="45.17573" lon="5.9076">
        <ele>1383.48</ele>
        <time>2026-07-07T06:20:53.999Z</time>
      </trkpt>
      <trkpt lat="45.17556" lon="5.90744">
        <ele>1385.64</ele>
        <time>2026-07-07T06:21:15.999Z</time>
      </trkpt>
      <trkpt lat="45.17539" lon="5.9073">
        <ele>1392.99</ele>
        <time>2026-07-07T06:21:35.999Z</time>
      </trkpt>
      <trkpt lat="45.17521" lon="5.90722">
        <ele>1395.73</ele>
        <time>2026-07-07T06:21:53.999Z</time>
      </trkpt>
      <trkpt lat="45.17501" lon="5.90719">
        <ele>1394.16</ele>
        <time>2026-07-07T06:22:13.999Z</time>
      </trkpt>
      <trkpt lat="45.17483" lon="5.90727">
        <ele>1395.33</ele>
        <time>2026-07-07T06:22:31.999Z</time>
      </trkpt>
      <trkpt lat="45.17465" lon="5.90732">
        <ele>1400.58</ele>
        <time>2026-07-07T06:22:51.999Z</time>
      </trkpt>
      <trkpt lat="45.17448" lon="5.9072">
        <ele>1404.42</ele>
        <time>2026-07-07T06:23:07.999Z</time>
      </trkpt>
      <trkpt lat="45.1743" lon="5.90708">
        <ele>1407.8</ele>
        <time>2026-07-07T06:23:23.999Z</time>
      </trkpt>
      <trkpt lat="45.1741" lon="5.90704">
        <ele>1409.62</ele>
        <time>2026-07-07T06:23:41.999Z</time>
      </trkpt>
      <trkpt lat="45.17391" lon="5.90708">
        <ele>1408.72</ele>
        <time>2026-07-07T06:23:59.999Z</time>
      </trkpt>
      <trkpt lat="45.17373" lon="5.90714">
        <ele>1409.38</ele>
        <time>2026-07-07T06:24:17.999Z</time>
      </trkpt>
      <trkpt lat="45.17353" lon="5.90718">
        <ele>1412.66</ele>
        <time>2026-07-07T06:24:39.999Z</time>
      </trkpt>
      <trkpt lat="45.17333" lon="5.90724">
        <ele>1411.98</ele>
        <time>2026-07-07T06:24:57.999Z</time>
      </trkpt>
      <trkpt lat="45.17315" lon="5.90724">
        <ele>1414.12</ele>
        <time>2026-07-07T06:25:15.999Z</time>
      </trkpt>
      <trkpt lat="45.17297" lon="5.90724">
        <ele>1417.76</ele>
        <time>2026-07-07T06:25:33.999Z</time>
      </trkpt>
      <trkpt lat="45.17279" lon="5.90728">
        <ele>1421.12</ele>
        <time>2026-07-07T06:25:51.999Z</time>
      </trkpt>
      <trkpt lat="45.17262" lon="5.90737">
        <ele>1424.78</ele>
        <time>2026-07-07T06:26:13.999Z</time>
      </trkpt>
      <trkpt lat="45.17243" lon="5.90744">
        <ele>1427.77</ele>
        <time>2026-07-07T06:26:29.999Z</time>
      </trkpt>
      <trkpt lat="45.17224" lon="5.90749">
        <ele>1428.8</ele>
        <time>2026-07-07T06:26:45.999Z</time>
      </trkpt>
      <trkpt lat="45.17206" lon="5.90755">
        <ele>1429.75</ele>
        <time>2026-07-07T06:27:01.999Z</time>
      </trkpt>
      <trkpt lat="45.17188" lon="5.90763">
        <ele>1431.79</ele>
        <time>2026-07-07T06:27:19.999Z</time>
      </trkpt>
      <trkpt lat="45.17168" lon="5.90765">
        <ele>1436.25</ele>
        <time>2026-07-07T06:27:37.999Z</time>
      </trkpt>
      <trkpt lat="45.1715" lon="5.90773">
        <ele>1437.96</ele>
        <time>2026-07-07T06:28:04.000Z</time>
      </trkpt>
      <trkpt lat="45.17134" lon="5.90784">
        <ele>1441.55</ele>
        <time>2026-07-07T06:28:22.000Z</time>
      </trkpt>
      <trkpt lat="45.17116" lon="5.90797">
        <ele>1440.59</ele>
        <time>2026-07-07T06:28:42.000Z</time>
      </trkpt>
      <trkpt lat="45.17099" lon="5.90811">
        <ele>1441.08</ele>
        <time>2026-07-07T06:29:00.000Z</time>
      </trkpt>
      <trkpt lat="45.17078" lon="5.90808">
        <ele>1442.9</ele>
        <time>2026-07-07T06:29:18.000Z</time>
      </trkpt>
      <trkpt lat="45.17062" lon="5.9079">
        <ele>1449.72</ele>
        <time>2026-07-07T06:29:34.000Z</time>
      </trkpt>
      <trkpt lat="45.17048" lon="5.90774">
        <ele>1449.12</ele>
        <time>2026-07-07T06:29:50.000Z</time>
      </trkpt>
      <trkpt lat="45.17034" lon="5.90756">
        <ele>1451.74</ele>
        <time>2026-07-07T06:30:08.000Z</time>
      </trkpt>
      <trkpt lat="45.17018" lon="5.90741">
        <ele>1456.61</ele>
        <time>2026-07-07T06:30:30.000Z</time>
      </trkpt>
      <trkpt lat="45.17" lon="5.90743">
        <ele>1455.32</ele>
        <time>2026-07-07T06:30:48.000Z</time>
      </trkpt>
      <trkpt lat="45.16981" lon="5.90748">
        <ele>1456.73</ele>
        <time>2026-07-07T06:31:12.000Z</time>
      </trkpt>
      <trkpt lat="45.16963" lon="5.90748">
        <ele>1458.45</ele>
        <time>2026-07-07T06:31:32.000Z</time>
      </trkpt>
      <trkpt lat="45.16944" lon="5.90755">
        <ele>1457.88</ele>
        <time>2026-07-07T06:31:52.000Z</time>
      </trkpt>
      <trkpt lat="45.16927" lon="5.90768">
        <ele>1459.85</ele>
        <time>2026-07-07T06:32:10.000Z</time>
      </trkpt>
      <trkpt lat="45.16909" lon="5.90772">
        <ele>1465.19</ele>
        <time>2026-07-07T06:32:26.000Z</time>
      </trkpt>
      <trkpt lat="45.16892" lon="5.90762">
        <ele>1471.77</ele>
        <time>2026-07-07T06:32:46.000Z</time>
      </trkpt>
      <trkpt lat="45.16874" lon="5.90753">
        <ele>1472.11</ele>
        <time>2026-07-07T06:33:00.000Z</time>
      </trkpt>
      <trkpt lat="45.16856" lon="5.90743">
        <ele>1476.45</ele>
        <time>2026-07-07T06:33:16.000Z</time>
      </trkpt>
      <trkpt lat="45.16838" lon="5.90734">
        <ele>1475.15</ele>
        <time>2026-07-07T06:33:36.000Z</time>
      </trkpt>
      <trkpt lat="45.16819" lon="5.90722">
        <ele>1477.26</ele>
        <time>2026-07-07T06:33:56.000Z</time>
      </trkpt>
      <trkpt lat="45.16802" lon="5.90709">
        <ele>1476.69</ele>
        <time>2026-07-07T06:34:16.000Z</time>
      </trkpt>
      <trkpt lat="45.16788" lon="5.90688">
        <ele>1478.22</ele>
        <time>2026-07-07T06:34:34.000Z</time>
      </trkpt>
      <trkpt lat="45.16775" lon="5.90671">
        <ele>1478.97</ele>
        <time>2026-07-07T06:34:50.000Z</time>
      </trkpt>
      <trkpt lat="45.1676" lon="5.90656">
        <ele>1478.4</ele>
        <time>2026-07-07T06:35:10.000Z</time>
      </trkpt>
      <trkpt lat="45.16742" lon="5.90642">
        <ele>1479.46</ele>
        <time>2026-07-07T06:35:26.000Z</time>
      </trkpt>
      <trkpt lat="45.16726" lon="5.90629">
        <ele>1481</ele>
        <time>2026-07-07T06:35:44.000Z</time>
      </trkpt>
      <trkpt lat="45.16709" lon="5.90616">
        <ele>1483.65</ele>
        <time>2026-07-07T06:36:04.000Z</time>
      </trkpt>
      <trkpt lat="45.16692" lon="5.90608">
        <ele>1483.92</ele>
        <time>2026-07-07T06:36:24.000Z</time>
      </trkpt>
      <trkpt lat="45.16673" lon="5.90607">
        <ele>1485.25</ele>
        <time>2026-07-07T06:36:41.999Z</time>
      </trkpt>
      <trkpt lat="45.16653" lon="5.90606">
        <ele>1487.27</ele>
        <time>2026-07-07T06:36:57.999Z</time>
      </trkpt>
      <trkpt lat="45.16634" lon="5.90604">
        <ele>1489.03</ele>
        <time>2026-07-07T06:37:17.999Z</time>
      </trkpt>
      <trkpt lat="45.16616" lon="5.90599">
        <ele>1492.38</ele>
        <time>2026-07-07T06:37:33.999Z</time>
      </trkpt>
      <trkpt lat="45.16599" lon="5.90588">
        <ele>1496.38</ele>
        <time>2026-07-07T06:37:49.999Z</time>
      </trkpt>
      <trkpt lat="45.16581" lon="5.9058">
        <ele>1498.36</ele>
        <time>2026-07-07T06:38:11.999Z</time>
      </trkpt>
      <trkpt lat="45.16562" lon="5.9057">
        <ele>1501.96</ele>
        <time>2026-07-07T06:38:29.999Z</time>
      </trkpt>
      <trkpt lat="45.16543" lon="5.90561">
        <ele>1504.1</ele>
        <time>2026-07-07T06:38:47.999Z</time>
      </trkpt>
      <trkpt lat="45.16525" lon="5.90547">
        <ele>1506.68</ele>
        <time>2026-07-07T06:39:07.999Z</time>
      </trkpt>
      <trkpt lat="45.1651" lon="5.90533">
        <ele>1507.82</ele>
        <time>2026-07-07T06:39:25.999Z</time>
      </trkpt>
      <trkpt lat="45.16497" lon="5.90513">
        <ele>1508.35</ele>
        <time>2026-07-07T06:39:41.999Z</time>
      </trkpt>
      <trkpt lat="45.16482" lon="5.90498">
        <ele>1511.52</ele>
        <time>2026-07-07T06:40:01.999Z</time>
      </trkpt>
      <trkpt lat="45.16463" lon="5.90493">
        <ele>1513.56</ele>
        <time>2026-07-07T06:40:21.999Z</time>
      </trkpt>
      <trkpt lat="45.16444" lon="5.90494">
        <ele>1517.05</ele>
        <time>2026-07-07T06:40:41.999Z</time>
      </trkpt>
      <trkpt lat="45.16427" lon="5.905">
        <ele>1516.9</ele>
        <time>2026-07-07T06:41:01.999Z</time>
      </trkpt>
      <trkpt lat="45.16408" lon="5.90506">
        <ele>1519.57</ele>
        <time>2026-07-07T06:41:21.999Z</time>
      </trkpt>
      <trkpt lat="45.16391" lon="5.90514">
        <ele>1520.85</ele>
        <time>2026-07-07T06:41:43.999Z</time>
      </trkpt>
      <trkpt lat="45.16373" lon="5.9052">
        <ele>1523.81</ele>
        <time>2026-07-07T06:41:59.999Z</time>
      </trkpt>
      <trkpt lat="45.16355" lon="5.90528">
        <ele>1529.01</ele>
        <time>2026-07-07T06:42:21.999Z</time>
      </trkpt>
      <trkpt lat="45.16345" lon="5.9055">
        <ele>1533.04</ele>
        <time>2026-07-07T06:42:41.999Z</time>
      </trkpt>
      <trkpt lat="45.16337" lon="5.90574">
        <ele>1535.93</ele>
        <time>2026-07-07T06:43:01.999Z</time>
      </trkpt>
      <trkpt lat="45.1633" lon="5.90598">
        <ele>1536.85</ele>
        <time>2026-07-07T06:44:19.999Z</time>
      </trkpt>
      <trkpt lat="45.16327" lon="5.90625">
        <ele>1538.18</ele>
        <time>2026-07-07T06:44:37.999Z</time>
      </trkpt>
      <trkpt lat="45.16321" lon="5.9065">
        <ele>1540.73</ele>
        <time>2026-07-07T06:44:59.999Z</time>
      </trkpt>
      <trkpt lat="45.16332" lon="5.90628">
        <ele>1545.4</ele>
        <time>2026-07-07T06:45:50.000Z</time>
      </trkpt>
      <trkpt lat="45.16343" lon="5.90608">
        <ele>1548.72</ele>
        <time>2026-07-07T06:46:10.000Z</time>
      </trkpt>
      <trkpt lat="45.16356" lon="5.90589">
        <ele>1551.41</ele>
        <time>2026-07-07T06:46:32.000Z</time>
      </trkpt>
      <trkpt lat="45.16372" lon="5.90569">
        <ele>1554.43</ele>
        <time>2026-07-07T06:47:02.000Z</time>
      </trkpt>
      <trkpt lat="45.1639" lon="5.90563">
        <ele>1557.22</ele>
        <time>2026-07-07T06:47:22.000Z</time>
      </trkpt>
      <trkpt lat="45.1641" lon="5.90566">
        <ele>1560.95</ele>
        <time>2026-07-07T06:47:42.000Z</time>
      </trkpt>
      <trkpt lat="45.16427" lon="5.90581">
        <ele>1563.27</ele>
        <time>2026-07-07T06:48:06.000Z</time>
      </trkpt>
      <trkpt lat="45.16441" lon="5.90599">
        <ele>1565.73</ele>
        <time>2026-07-07T06:48:26.000Z</time>
      </trkpt>
      <trkpt lat="45.16452" lon="5.90619">
        <ele>1568.79</ele>
        <time>2026-07-07T06:48:46.000Z</time>
      </trkpt>
      <trkpt lat="45.16461" lon="5.90642">
        <ele>1571.88</ele>
        <time>2026-07-07T06:49:08.000Z</time>
      </trkpt>
      <trkpt lat="45.16469" lon="5.90666">
        <ele>1575.33</ele>
        <time>2026-07-07T06:49:34.000Z</time>
      </trkpt>
      <trkpt lat="45.16479" lon="5.90687">
        <ele>1578.23</ele>
        <time>2026-07-07T06:49:56.000Z</time>
      </trkpt>
      <trkpt lat="45.16494" lon="5.90706">
        <ele>1581.59</ele>
        <time>2026-07-07T06:50:14.000Z</time>
      </trkpt>
      <trkpt lat="45.16476" lon="5.90716">
        <ele>1586.81</ele>
        <time>2026-07-07T06:50:56.000Z</time>
      </trkpt>
      <trkpt lat="45.16461" lon="5.90701">
        <ele>1590.13</ele>
        <time>2026-07-07T06:51:20.000Z</time>
      </trkpt>
      <trkpt lat="45.16444" lon="5.9069">
        <ele>1591.84</ele>
        <time>2026-07-07T06:51:38.000Z</time>
      </trkpt>
      <trkpt lat="45.16427" lon="5.90683">
        <ele>1596.49</ele>
        <time>2026-07-07T06:52:08.000Z</time>
      </trkpt>
      <trkpt lat="45.16412" lon="5.90698">
        <ele>1599.95</ele>
        <time>2026-07-07T06:52:50.000Z</time>
      </trkpt>
      <trkpt lat="45.16425" lon="5.90717">
        <ele>1607.59</ele>
        <time>2026-07-07T06:53:38.000Z</time>
      </trkpt>
      <trkpt lat="45.16437" lon="5.90736">
        <ele>1609.7</ele>
        <time>2026-07-07T06:53:58.000Z</time>
      </trkpt>
      <trkpt lat="45.16447" lon="5.9076">
        <ele>1613.08</ele>
        <time>2026-07-07T06:54:21.999Z</time>
      </trkpt>
      <trkpt lat="45.1643" lon="5.90769">
        <ele>1618.07</ele>
        <time>2026-07-07T06:55:03.999Z</time>
      </trkpt>
      <trkpt lat="45.16436" lon="5.90795">
        <ele>1629.09</ele>
        <time>2026-07-07T06:56:23.999Z</time>
      </trkpt>
      <trkpt lat="45.16447" lon="5.90818">
        <ele>1632.3</ele>
        <time>2026-07-07T06:56:49.999Z</time>
      </trkpt>
      <trkpt lat="45.16432" lon="5.90833">
        <ele>1640.15</ele>
        <time>2026-07-07T06:57:45.999Z</time>
      </trkpt>
      <trkpt lat="45.16418" lon="5.90853">
        <ele>1645.19</ele>
        <time>2026-07-07T06:58:27.999Z</time>
      </trkpt>
      <trkpt lat="45.16433" lon="5.9087">
        <ele>1651.98</ele>
        <time>2026-07-07T06:59:07.999Z</time>
      </trkpt>
      <trkpt lat="45.16448" lon="5.90886">
        <ele>1655.76</ele>
        <time>2026-07-07T06:59:31.999Z</time>
      </trkpt>
      <trkpt lat="45.1646" lon="5.90906">
        <ele>1660.13</ele>
        <time>2026-07-07T06:59:59.999Z</time>
      </trkpt>
      <trkpt lat="45.16441" lon="5.90908">
        <ele>1665.35</ele>
        <time>2026-07-07T07:00:45.999Z</time>
      </trkpt>
      <trkpt lat="45.16423" lon="5.90915">
        <ele>1666.64</ele>
        <time>2026-07-07T07:00:57.999Z</time>
      </trkpt>
      <trkpt lat="45.16405" lon="5.90923">
        <ele>1671.02</ele>
        <time>2026-07-07T07:01:17.999Z</time>
      </trkpt>
      <trkpt lat="45.16419" lon="5.90943">
        <ele>1678.4</ele>
        <time>2026-07-07T07:02:11.999Z</time>
      </trkpt>
      <trkpt lat="45.16406" lon="5.90964">
        <ele>1683.63</ele>
        <time>2026-07-07T07:02:54.000Z</time>
      </trkpt>
      <trkpt lat="45.16389" lon="5.90979">
        <ele>1686.98</ele>
        <time>2026-07-07T07:03:12.000Z</time>
      </trkpt>
      <trkpt lat="45.16377" lon="5.90999">
        <ele>1689.52</ele>
        <time>2026-07-07T07:03:36.000Z</time>
      </trkpt>
      <trkpt lat="45.16368" lon="5.91021">
        <ele>1693.2</ele>
        <time>2026-07-07T07:04:00.000Z</time>
      </trkpt>
      <trkpt lat="45.16355" lon="5.9104">
        <ele>1696.76</ele>
        <time>2026-07-07T07:04:28.000Z</time>
      </trkpt>
      <trkpt lat="45.16373" lon="5.91035">
        <ele>1705.24</ele>
        <time>2026-07-07T07:05:32.000Z</time>
      </trkpt>
      <trkpt lat="45.1637" lon="5.91062">
        <ele>1708.62</ele>
        <time>2026-07-07T07:06:00.000Z</time>
      </trkpt>
      <trkpt lat="45.16358" lon="5.91084">
        <ele>1711.98</ele>
        <time>2026-07-07T07:06:26.000Z</time>
      </trkpt>
      <trkpt lat="45.16377" lon="5.91083">
        <ele>1723.52</ele>
        <time>2026-07-07T07:07:58.000Z</time>
      </trkpt>
      <trkpt lat="45.1638" lon="5.91109">
        <ele>1730.95</ele>
        <time>2026-07-07T07:08:50.000Z</time>
      </trkpt>
      <trkpt lat="45.16367" lon="5.91129">
        <ele>1734.65</ele>
        <time>2026-07-07T07:09:18.000Z</time>
      </trkpt>
      <trkpt lat="45.16386" lon="5.91134">
        <ele>1743.37</ele>
        <time>2026-07-07T07:10:14.000Z</time>
      </trkpt>
      <trkpt lat="45.16403" lon="5.91141">
        <ele>1748.47</ele>
        <time>2026-07-07T07:10:34.000Z</time>
      </trkpt>
      <trkpt lat="45.16421" lon="5.91147">
        <ele>1749.27</ele>
        <time>2026-07-07T07:11:06.000Z</time>
      </trkpt>
      <trkpt lat="45.16433" lon="5.91169">
        <ele>1753.17</ele>
        <time>2026-07-07T07:11:31.999Z</time>
      </trkpt>
      <trkpt lat="45.16415" lon="5.91179">
        <ele>1759.21</ele>
        <time>2026-07-07T07:11:57.999Z</time>
      </trkpt>
      <trkpt lat="45.16422" lon="5.91203">
        <ele>1764.64</ele>
        <time>2026-07-07T07:12:43.999Z</time>
      </trkpt>
      <trkpt lat="45.16429" lon="5.91228">
        <ele>1771.07</ele>
        <time>2026-07-07T07:13:07.999Z</time>
      </trkpt>
      <trkpt lat="45.1641" lon="5.91225">
        <ele>1774.49</ele>
        <time>2026-07-07T07:13:35.999Z</time>
      </trkpt>
      <trkpt lat="45.16391" lon="5.91223">
        <ele>1773.79</ele>
        <time>2026-07-07T07:13:57.999Z</time>
      </trkpt>
      <trkpt lat="45.16374" lon="5.91217">
        <ele>1776.3</ele>
        <time>2026-07-07T07:14:17.999Z</time>
      </trkpt>
      <trkpt lat="45.16355" lon="5.91222">
        <ele>1778.07</ele>
        <time>2026-07-07T07:14:37.999Z</time>
      </trkpt>
      <trkpt lat="45.1634" lon="5.91238">
        <ele>1781.08</ele>
        <time>2026-07-07T07:15:03.999Z</time>
      </trkpt>
      <trkpt lat="45.16321" lon="5.91243">
        <ele>1785</ele>
        <time>2026-07-07T07:15:31.999Z</time>
      </trkpt>
      <trkpt lat="45.16305" lon="5.9126">
        <ele>1787.17</ele>
        <time>2026-07-07T07:15:59.999Z</time>
      </trkpt>
      <trkpt lat="45.16291" lon="5.91276">
        <ele>1791.58</ele>
        <time>2026-07-07T07:16:21.999Z</time>
      </trkpt>
      <trkpt lat="45.16274" lon="5.91286">
        <ele>1793.2</ele>
        <time>2026-07-07T07:16:47.999Z</time>
      </trkpt>
      <trkpt lat="45.1626" lon="5.91302">
        <ele>1796.14</ele>
        <time>2026-07-07T07:17:05.999Z</time>
      </trkpt>
      <trkpt lat="45.16247" lon="5.91322">
        <ele>1798.35</ele>
        <time>2026-07-07T07:17:27.999Z</time>
      </trkpt>
      <trkpt lat="45.1623" lon="5.91331">
        <ele>1801.38</ele>
        <time>2026-07-07T07:18:01.999Z</time>
      </trkpt>
      <trkpt lat="45.16211" lon="5.91332">
        <ele>1803.52</ele>
        <time>2026-07-07T07:18:29.999Z</time>
      </trkpt>
      <trkpt lat="45.16195" lon="5.91319">
        <ele>1805.09</ele>
        <time>2026-07-07T07:18:51.999Z</time>
      </trkpt>
      <trkpt lat="45.16177" lon="5.91313">
        <ele>1806.51</ele>
        <time>2026-07-07T07:19:07.999Z</time>
      </trkpt>
      <trkpt lat="45.16159" lon="5.91307">
        <ele>1809.79</ele>
        <time>2026-07-07T07:19:31.999Z</time>
      </trkpt>
      <trkpt lat="45.16142" lon="5.91297">
        <ele>1814.55</ele>
        <time>2026-07-07T07:19:59.999Z</time>
      </trkpt>
      <trkpt lat="45.16123" lon="5.91295">
        <ele>1818.29</ele>
        <time>2026-07-07T07:20:52.000Z</time>
      </trkpt>
      <trkpt lat="45.16105" lon="5.91302">
        <ele>1826.22</ele>
        <time>2026-07-07T07:21:28.000Z</time>
      </trkpt>
      <trkpt lat="45.16086" lon="5.91302">
        <ele>1830.37</ele>
        <time>2026-07-07T07:21:56.000Z</time>
      </trkpt>
      <trkpt lat="45.16068" lon="5.91301">
        <ele>1835.03</ele>
        <time>2026-07-07T07:22:22.000Z</time>
      </trkpt>
      <trkpt lat="45.16055" lon="5.91281">
        <ele>1841.21</ele>
        <time>2026-07-07T07:22:50.000Z</time>
      </trkpt>
      <trkpt lat="45.16038" lon="5.91273">
        <ele>1846.41</ele>
        <time>2026-07-07T07:23:30.000Z</time>
      </trkpt>
      <trkpt lat="45.16021" lon="5.91261">
        <ele>1850.93</ele>
        <time>2026-07-07T07:24:20.000Z</time>
      </trkpt>
      <trkpt lat="45.16004" lon="5.91251">
        <ele>1862.58</ele>
        <time>2026-07-07T07:24:46.000Z</time>
      </trkpt>
      <trkpt lat="45.15986" lon="5.9124">
        <ele>1862.34</ele>
        <time>2026-07-07T07:25:22.000Z</time>
      </trkpt>
      <trkpt lat="45.15968" lon="5.91237">
        <ele>1869.47</ele>
        <time>2026-07-07T07:25:52.000Z</time>
      </trkpt>
      <trkpt lat="45.15949" lon="5.91238">
        <ele>1877.89</ele>
        <time>2026-07-07T07:26:34.000Z</time>
      </trkpt>
      <trkpt lat="45.15936" lon="5.91257">
        <ele>1886.57</ele>
        <time>2026-07-07T07:27:46.000Z</time>
      </trkpt>
      <trkpt lat="45.15937" lon="5.91285">
        <ele>1895.25</ele>
        <time>2026-07-07T07:28:36.000Z</time>
      </trkpt>
      <trkpt lat="45.15925" lon="5.91305">
        <ele>1906.3</ele>
        <time>2026-07-07T07:29:35.999Z</time>
      </trkpt>
      <trkpt lat="45.15909" lon="5.91318">
        <ele>1918.74</ele>
        <time>2026-07-07T07:30:57.999Z</time>
      </trkpt>
      <trkpt lat="45.15895" lon="5.91335">
        <ele>1926.37</ele>
        <time>2026-07-07T07:31:49.999Z</time>
      </trkpt>
      <trkpt lat="45.15877" lon="5.91348">
        <ele>1933.05</ele>
        <time>2026-07-07T07:33:51.999Z</time>
      </trkpt>
      <trkpt lat="45.15862" lon="5.91364">
        <ele>1939.68</ele>
        <time>2026-07-07T07:34:31.999Z</time>
      </trkpt>
      <trkpt lat="45.15846" lon="5.91376">
        <ele>1944.1</ele>
        <time>2026-07-07T07:34:55.999Z</time>
      </trkpt>
      <trkpt lat="45.15829" lon="5.91388">
        <ele>1948.02</ele>
        <time>2026-07-07T07:35:17.999Z</time>
      </trkpt>
      <trkpt lat="45.15814" lon="5.91403">
        <ele>1950.57</ele>
        <time>2026-07-07T07:35:37.999Z</time>
      </trkpt>
      <trkpt lat="45.15798" lon="5.91418">
        <ele>1956.41</ele>
        <time>2026-07-07T07:36:27.999Z</time>
      </trkpt>
      <trkpt lat="45.15791" lon="5.91443">
        <ele>1957.64</ele>
        <time>2026-07-07T07:37:01.999Z</time>
      </trkpt>
      <trkpt lat="45.15783" lon="5.91467">
        <ele>1961.65</ele>
        <time>2026-07-07T07:37:21.999Z</time>
      </trkpt>
      <trkpt lat="45.15773" lon="5.91489">
        <ele>1966.18</ele>
        <time>2026-07-07T07:37:52.000Z</time>
      </trkpt>
      <trkpt lat="45.15759" lon="5.91508">
        <ele>1969.54</ele>
        <time>2026-07-07T07:38:20.000Z</time>
      </trkpt>
      <trkpt lat="45.1574" lon="5.91515">
        <ele>1974.02</ele>
        <time>2026-07-07T07:38:44.000Z</time>
      </trkpt>
      <trkpt lat="45.1573" lon="5.91539">
        <ele>1980.06</ele>
        <time>2026-07-07T07:40:52.000Z</time>
      </trkpt>
      <trkpt lat="45.15737" lon="5.91563">
        <ele>1981.89</ele>
        <time>2026-07-07T07:41:16.000Z</time>
      </trkpt>
      <trkpt lat="45.15743" lon="5.91589">
        <ele>1983.33</ele>
        <time>2026-07-07T07:41:48.000Z</time>
      </trkpt>
      <trkpt lat="45.15748" lon="5.91616">
        <ele>1987.27</ele>
        <time>2026-07-07T07:42:16.000Z</time>
      </trkpt>
      <trkpt lat="45.1575" lon="5.91642">
        <ele>1988.9</ele>
        <time>2026-07-07T07:42:38.000Z</time>
      </trkpt>
      <trkpt lat="45.15751" lon="5.91669">
        <ele>1985.47</ele>
        <time>2026-07-07T07:43:12.000Z</time>
      </trkpt>
      <trkpt lat="45.1575" lon="5.91694">
        <ele>1982.97</ele>
        <time>2026-07-07T07:43:38.000Z</time>
      </trkpt>
      <trkpt lat="45.15742" lon="5.91719">
        <ele>1979.53</ele>
        <time>2026-07-07T07:44:02.000Z</time>
      </trkpt>
      <trkpt lat="45.15729" lon="5.91738">
        <ele>1974.94</ele>
        <time>2026-07-07T07:44:40.000Z</time>
      </trkpt>
      <trkpt lat="45.15717" lon="5.91758">
        <ele>1971.49</ele>
        <time>2026-07-07T07:45:02.000Z</time>
      </trkpt>
      <trkpt lat="45.15706" lon="5.9178">
        <ele>1967.51</ele>
        <time>2026-07-07T07:45:28.000Z</time>
      </trkpt>
      <trkpt lat="45.15698" lon="5.91804">
        <ele>1961.29</ele>
        <time>2026-07-07T07:45:52.000Z</time>
      </trkpt>
      <trkpt lat="45.15689" lon="5.91828">
        <ele>1960.79</ele>
        <time>2026-07-07T07:46:18.000Z</time>
      </trkpt>
      <trkpt lat="45.1568" lon="5.91853">
        <ele>1959.92</ele>
        <time>2026-07-07T07:46:49.999Z</time>
      </trkpt>
      <trkpt lat="45.15666" lon="5.91871">
        <ele>1957.76</ele>
        <time>2026-07-07T07:47:23.999Z</time>
      </trkpt>
      <trkpt lat="45.15651" lon="5.91885">
        <ele>1955.91</ele>
        <time>2026-07-07T07:47:51.999Z</time>
      </trkpt>
      <trkpt lat="45.15637" lon="5.91904">
        <ele>1956.62</ele>
        <time>2026-07-07T07:48:35.999Z</time>
      </trkpt>
      <trkpt lat="45.15629" lon="5.91927">
        <ele>1965.23</ele>
        <time>2026-07-07T07:49:43.999Z</time>
      </trkpt>
      <trkpt lat="45.15631" lon="5.91953">
        <ele>1974.87</ele>
        <time>2026-07-07T07:55:28.000Z</time>
      </trkpt>
      <trkpt lat="45.15638" lon="5.91977">
        <ele>1973.7</ele>
        <time>2026-07-07T07:55:56.000Z</time>
      </trkpt>
      <trkpt lat="45.1564" lon="5.92003">
        <ele>1981.81</ele>
        <time>2026-07-07T07:56:34.000Z</time>
      </trkpt>
      <trkpt lat="45.15649" lon="5.92027">
        <ele>1982.23</ele>
        <time>2026-07-07T07:57:30.000Z</time>
      </trkpt>
      <trkpt lat="45.15656" lon="5.92053">
        <ele>1987.14</ele>
        <time>2026-07-07T07:58:08.000Z</time>
      </trkpt>
      <trkpt lat="45.15641" lon="5.92069">
        <ele>1994.58</ele>
        <time>2026-07-07T07:59:06.000Z</time>
      </trkpt>
      <trkpt lat="45.15636" lon="5.92094">
        <ele>2002.58</ele>
        <time>2026-07-07T08:00:18.000Z</time>
      </trkpt>
      <trkpt lat="45.15634" lon="5.9212">
        <ele>2003.99</ele>
        <time>2026-07-07T08:01:26.000Z</time>
      </trkpt>
      <trkpt lat="45.15625" lon="5.92143">
        <ele>2006.49</ele>
        <time>2026-07-07T08:02:08.000Z</time>
      </trkpt>
      <trkpt lat="45.1561" lon="5.92157">
        <ele>2010.63</ele>
        <time>2026-07-07T08:02:42.000Z</time>
      </trkpt>
      <trkpt lat="45.156" lon="5.92179">
        <ele>2019.05</ele>
        <time>2026-07-07T08:03:49.999Z</time>
      </trkpt>
      <trkpt lat="45.15582" lon="5.92183">
        <ele>2033.08</ele>
        <time>2026-07-07T08:08:33.999Z</time>
      </trkpt>
      <trkpt lat="45.15575" lon="5.92207">
        <ele>2040.65</ele>
        <time>2026-07-07T08:10:33.999Z</time>
      </trkpt>
      <trkpt lat="45.15557" lon="5.92214">
        <ele>2046.9</ele>
        <time>2026-07-07T08:11:37.999Z</time>
      </trkpt>
      <trkpt lat="45.1555" lon="5.92238">
        <ele>2060.6</ele>
        <time>2026-07-07T08:13:46.000Z</time>
      </trkpt>
      <trkpt lat="45.15538" lon="5.92258">
        <ele>2078.42</ele>
        <time>2026-07-07T08:16:16.000Z</time>
      </trkpt>
      <trkpt lat="45.15522" lon="5.92271">
        <ele>2086.09</ele>
        <time>2026-07-07T08:17:38.000Z</time>
      </trkpt>
      <trkpt lat="45.15505" lon="5.92281">
        <ele>2106.84</ele>
        <time>2026-07-07T08:21:03.999Z</time>
      </trkpt>
      <trkpt lat="45.15493" lon="5.92301">
        <ele>2119.73</ele>
        <time>2026-07-07T08:23:19.999Z</time>
      </trkpt>
      <trkpt lat="45.15477" lon="5.92313">
        <ele>2124.2</ele>
        <time>2026-07-07T08:24:47.999Z</time>
      </trkpt>
      <trkpt lat="45.15464" lon="5.92332">
        <ele>2137.11</ele>
        <time>2026-07-07T08:27:45.999Z</time>
      </trkpt>
      <trkpt lat="45.15464" lon="5.92358">
        <ele>2141.88</ele>
        <time>2026-07-07T08:28:47.999Z</time>
      </trkpt>
      <trkpt lat="45.15468" lon="5.92383">
        <ele>2143.71</ele>
        <time>2026-07-07T08:29:26.000Z</time>
      </trkpt>
      <trkpt lat="45.15451" lon="5.92374">
        <ele>2161.18</ele>
        <time>2026-07-07T08:34:12.000Z</time>
      </trkpt>
      <trkpt lat="45.15443" lon="5.92351">
        <ele>2162.02</ele>
        <time>2026-07-07T08:37:12.000Z</time>
      </trkpt>
      <trkpt lat="45.15435" lon="5.92374">
        <ele>2168.67</ele>
        <time>2026-07-07T08:41:24.999Z</time>
      </trkpt>
      <trkpt lat="45.15452" lon="5.92386">
        <ele>2170.66</ele>
        <time>2026-07-07T08:43:01.999Z</time>
      </trkpt>
      <trkpt lat="45.15436" lon="5.92373">
        <ele>2169.27</ele>
        <time>2026-07-07T08:44:49.999Z</time>
      </trkpt>
      <trkpt lat="45.15441" lon="5.92398">
        <ele>2166.59</ele>
        <time>2026-07-07T08:46:56.000Z</time>
      </trkpt>
      <trkpt lat="45.15439" lon="5.92372">
        <ele>2170.28</ele>
        <time>2026-07-07T08:52:54.000Z</time>
      </trkpt>
      <trkpt lat="45.15453" lon="5.92387">
        <ele>2155.53</ele>
        <time>2026-07-07T09:01:16.999Z</time>
      </trkpt>
      <trkpt lat="45.15458" lon="5.92413">
        <ele>2151.89</ele>
        <time>2026-07-07T09:02:00.999Z</time>
      </trkpt>
      <trkpt lat="45.15473" lon="5.92426">
        <ele>2149.26</ele>
        <time>2026-07-07T09:02:52.999Z</time>
      </trkpt>
      <trkpt lat="45.15485" lon="5.92445">
        <ele>2147.57</ele>
        <time>2026-07-07T09:03:35.000Z</time>
      </trkpt>
      <trkpt lat="45.15501" lon="5.92459">
        <ele>2149.12</ele>
        <time>2026-07-07T09:04:23.000Z</time>
      </trkpt>
      <trkpt lat="45.15484" lon="5.9245">
        <ele>2160.66</ele>
        <time>2026-07-07T09:07:37.000Z</time>
      </trkpt>
      <trkpt lat="45.15467" lon="5.9244">
        <ele>2161.38</ele>
        <time>2026-07-07T09:09:45.000Z</time>
      </trkpt>
      <trkpt lat="45.15467" lon="5.92467">
        <ele>2180.73</ele>
        <time>2026-07-07T09:14:02.999Z</time>
      </trkpt>
      <trkpt lat="45.15478" lon="5.92487">
        <ele>2186.39</ele>
        <time>2026-07-07T09:15:10.999Z</time>
      </trkpt>
      <trkpt lat="45.15495" lon="5.92497">
        <ele>2192.74</ele>
        <time>2026-07-07T09:15:40.999Z</time>
      </trkpt>
      <trkpt lat="45.15509" lon="5.92516">
        <ele>2197.39</ele>
        <time>2026-07-07T09:16:28.999Z</time>
      </trkpt>
      <trkpt lat="45.15522" lon="5.92534">
        <ele>2201.93</ele>
        <time>2026-07-07T09:17:22.999Z</time>
      </trkpt>
      <trkpt lat="45.1554" lon="5.9254">
        <ele>2203.5</ele>
        <time>2026-07-07T09:18:12.999Z</time>
      </trkpt>
      <trkpt lat="45.15521" lon="5.92546">
        <ele>2209.68</ele>
        <time>2026-07-07T09:21:27.000Z</time>
      </trkpt>
      <trkpt lat="45.15517" lon="5.9252">
        <ele>2205.64</ele>
        <time>2026-07-07T09:21:59.000Z</time>
      </trkpt>
      <trkpt lat="45.155" lon="5.92505">
        <ele>2197.67</ele>
        <time>2026-07-07T09:23:21.000Z</time>
      </trkpt>
      <trkpt lat="45.15484" lon="5.92494">
        <ele>2187.77</ele>
        <time>2026-07-07T09:23:59.000Z</time>
      </trkpt>
      <trkpt lat="45.15478" lon="5.92469">
        <ele>2181.02</ele>
        <time>2026-07-07T09:25:45.000Z</time>
      </trkpt>
      <trkpt lat="45.15479" lon="5.92444">
        <ele>2163.92</ele>
        <time>2026-07-07T09:30:30.999Z</time>
      </trkpt>
      <trkpt lat="45.15491" lon="5.92465">
        <ele>2156.58</ele>
        <time>2026-07-07T09:32:36.999Z</time>
      </trkpt>
      <trkpt lat="45.15508" lon="5.92471">
        <ele>2147.5</ele>
        <time>2026-07-07T09:34:14.999Z</time>
      </trkpt>
      <trkpt lat="45.15526" lon="5.92477">
        <ele>2140.47</ele>
        <time>2026-07-07T09:35:10.999Z</time>
      </trkpt>
      <trkpt lat="45.15535" lon="5.92455">
        <ele>2121.37</ele>
        <time>2026-07-07T09:38:45.000Z</time>
      </trkpt>
      <trkpt lat="45.15552" lon="5.92468">
        <ele>2114.7</ele>
        <time>2026-07-07T09:40:19.000Z</time>
      </trkpt>
      <trkpt lat="45.1556" lon="5.92491">
        <ele>2111.25</ele>
        <time>2026-07-07T09:41:05.000Z</time>
      </trkpt>
      <trkpt lat="45.15575" lon="5.92504">
        <ele>2114.98</ele>
        <time>2026-07-07T09:41:39.000Z</time>
      </trkpt>
      <trkpt lat="45.15592" lon="5.92516">
        <ele>2116.01</ele>
        <time>2026-07-07T09:42:55.000Z</time>
      </trkpt>
      <trkpt lat="45.15608" lon="5.92529">
        <ele>2115.82</ele>
        <time>2026-07-07T09:43:27.000Z</time>
      </trkpt>
      <trkpt lat="45.15616" lon="5.92553">
        <ele>2116.99</ele>
        <time>2026-07-07T09:44:19.000Z</time>
      </trkpt>
      <trkpt lat="45.15634" lon="5.92556">
        <ele>2131.08</ele>
        <time>2026-07-07T09:47:00.999Z</time>
      </trkpt>
      <trkpt lat="45.15651" lon="5.92546">
        <ele>2137.59</ele>
        <time>2026-07-07T09:48:36.999Z</time>
      </trkpt>
      <trkpt lat="45.15658" lon="5.9257">
        <ele>2156.64</ele>
        <time>2026-07-07T09:51:48.999Z</time>
      </trkpt>
      <trkpt lat="45.15642" lon="5.92582">
        <ele>2163.09</ele>
        <time>2026-07-07T09:52:54.999Z</time>
      </trkpt>
      <trkpt lat="45.15626" lon="5.9257">
        <ele>2173.83</ele>
        <time>2026-07-07T09:53:46.999Z</time>
      </trkpt>
      <trkpt lat="45.15607" lon="5.92574">
        <ele>2178.24</ele>
        <time>2026-07-07T09:56:13.000Z</time>
      </trkpt>
      <trkpt lat="45.15591" lon="5.92587">
        <ele>2183.79</ele>
        <time>2026-07-07T09:57:41.000Z</time>
      </trkpt>
      <trkpt lat="45.15574" lon="5.92575">
        <ele>2193.76</ele>
        <time>2026-07-07T09:59:33.000Z</time>
      </trkpt>
      <trkpt lat="45.15565" lon="5.92553">
        <ele>2197.01</ele>
        <time>2026-07-07T10:00:13.000Z</time>
      </trkpt>
      <trkpt lat="45.15548" lon="5.92539">
        <ele>2195.21</ele>
        <time>2026-07-07T10:01:09.000Z</time>
      </trkpt>
      <trkpt lat="45.15564" lon="5.92553">
        <ele>2195.17</ele>
        <time>2026-07-07T10:03:29.000Z</time>
      </trkpt>
      <trkpt lat="45.15576" lon="5.92573">
        <ele>2197.23</ele>
        <time>2026-07-07T10:04:01.000Z</time>
      </trkpt>
      <trkpt lat="45.15588" lon="5.92592">
        <ele>2200.51</ele>
        <time>2026-07-07T10:04:32.999Z</time>
      </trkpt>
      <trkpt lat="45.15599" lon="5.92612">
        <ele>2201.4</ele>
        <time>2026-07-07T10:05:06.999Z</time>
      </trkpt>
      <trkpt lat="45.15608" lon="5.92636">
        <ele>2204.24</ele>
        <time>2026-07-07T10:06:16.999Z</time>
      </trkpt>
      <trkpt lat="45.15607" lon="5.92662">
        <ele>2215.17</ele>
        <time>2026-07-07T10:09:06.999Z</time>
      </trkpt>
      <trkpt lat="45.15613" lon="5.92687">
        <ele>2221.5</ele>
        <time>2026-07-07T10:10:30.999Z</time>
      </trkpt>
      <trkpt lat="45.15607" lon="5.92711">
        <ele>2235.17</ele>
        <time>2026-07-07T10:13:27.000Z</time>
      </trkpt>
      <trkpt lat="45.15589" lon="5.92699">
        <ele>2244.23</ele>
        <time>2026-07-07T10:17:17.000Z</time>
      </trkpt>
      <trkpt lat="45.15586" lon="5.92674">
        <ele>2261.92</ele>
        <time>2026-07-07T10:21:15.000Z</time>
      </trkpt>
      <trkpt lat="45.1557" lon="5.9266">
        <ele>2265.71</ele>
        <time>2026-07-07T10:22:04.999Z</time>
      </trkpt>
      <trkpt lat="45.15558" lon="5.9264">
        <ele>2276.04</ele>
        <time>2026-07-07T10:23:18.999Z</time>
      </trkpt>
      <trkpt lat="45.15541" lon="5.92631">
        <ele>2281.53</ele>
        <time>2026-07-07T10:25:22.999Z</time>
      </trkpt>
      <trkpt lat="45.15559" lon="5.92625">
        <ele>2278.5</ele>
        <time>2026-07-07T11:01:41.999Z</time>
      </trkpt>
      <trkpt lat="45.1555" lon="5.92602">
        <ele>2259.55</ele>
        <time>2026-07-07T11:04:42.000Z</time>
      </trkpt>
      <trkpt lat="45.15532" lon="5.92592">
        <ele>2261.42</ele>
        <time>2026-07-07T11:08:48.000Z</time>
      </trkpt>
      <trkpt lat="45.15524" lon="5.92569">
        <ele>2257.05</ele>
        <time>2026-07-07T11:10:22.000Z</time>
      </trkpt>
      <trkpt lat="45.15512" lon="5.9255">
        <ele>2256.67</ele>
        <time>2026-07-07T11:11:22.000Z</time>
      </trkpt>
      <trkpt lat="45.1553" lon="5.92545">
        <ele>2255.75</ele>
        <time>2026-07-07T11:14:29.999Z</time>
      </trkpt>
      <trkpt lat="45.15511" lon="5.92553">
        <ele>2256.99</ele>
        <time>2026-07-07T11:15:47.999Z</time>
      </trkpt>
      <trkpt lat="45.1552" lon="5.92575">
        <ele>2258.57</ele>
        <time>2026-07-07T11:16:45.999Z</time>
      </trkpt>
      <trkpt lat="45.15529" lon="5.92598">
        <ele>2258.63</ele>
        <time>2026-07-07T11:18:49.999Z</time>
      </trkpt>
      <trkpt lat="45.15546" lon="5.92609">
        <ele>2266.17</ele>
        <time>2026-07-07T11:20:09.999Z</time>
      </trkpt>
      <trkpt lat="45.1556" lon="5.92625">
        <ele>2278.52</ele>
        <time>2026-07-07T11:22:20.000Z</time>
      </trkpt>
      <trkpt lat="45.15572" lon="5.92646">
        <ele>2272.75</ele>
        <time>2026-07-07T11:24:22.000Z</time>
      </trkpt>
      <trkpt lat="45.15587" lon="5.9266">
        <ele>2271.25</ele>
        <time>2026-07-07T11:25:06.000Z</time>
      </trkpt>
      <trkpt lat="45.15593" lon="5.92685">
        <ele>2253.5</ele>
        <time>2026-07-07T11:28:58.000Z</time>
      </trkpt>
      <trkpt lat="45.15603" lon="5.92708">
        <ele>2243.49</ele>
        <time>2026-07-07T11:32:13.999Z</time>
      </trkpt>
      <trkpt lat="45.15609" lon="5.92683">
        <ele>2218.98</ele>
        <time>2026-07-07T11:34:57.999Z</time>
      </trkpt>
      <trkpt lat="45.15617" lon="5.9266">
        <ele>2202.25</ele>
        <time>2026-07-07T11:37:27.999Z</time>
      </trkpt>
      <trkpt lat="45.1562" lon="5.92634">
        <ele>2190.87</ele>
        <time>2026-07-07T11:38:47.999Z</time>
      </trkpt>
      <trkpt lat="45.15608" lon="5.92614">
        <ele>2191.53</ele>
        <time>2026-07-07T11:39:56.000Z</time>
      </trkpt>
      <trkpt lat="45.15626" lon="5.92619">
        <ele>2178.38</ele>
        <time>2026-07-07T11:42:56.000Z</time>
      </trkpt>
      <trkpt lat="45.15642" lon="5.92606">
        <ele>2172.24</ele>
        <time>2026-07-07T11:43:44.000Z</time>
      </trkpt>
      <trkpt lat="45.15661" lon="5.92599">
        <ele>2163.06</ele>
        <time>2026-07-07T11:44:26.000Z</time>
      </trkpt>
      <trkpt lat="45.15676" lon="5.92583">
        <ele>2147.8</ele>
        <time>2026-07-07T11:46:02.000Z</time>
      </trkpt>
      <trkpt lat="45.1569" lon="5.92567">
        <ele>2135.63</ele>
        <time>2026-07-07T11:47:32.000Z</time>
      </trkpt>
      <trkpt lat="45.15704" lon="5.92548">
        <ele>2125.9</ele>
        <time>2026-07-07T11:48:53.999Z</time>
      </trkpt>
      <trkpt lat="45.15715" lon="5.92526">
        <ele>2114.03</ele>
        <time>2026-07-07T11:50:23.999Z</time>
      </trkpt>
      <trkpt lat="45.15711" lon="5.92501">
        <ele>2101.3</ele>
        <time>2026-07-07T11:51:47.999Z</time>
      </trkpt>
      <trkpt lat="45.15708" lon="5.92474">
        <ele>2093.65</ele>
        <time>2026-07-07T11:53:13.999Z</time>
      </trkpt>
      <trkpt lat="45.15709" lon="5.92447">
        <ele>2084.33</ele>
        <time>2026-07-07T11:56:03.999Z</time>
      </trkpt>
      <trkpt lat="45.15708" lon="5.92422">
        <ele>2074.06</ele>
        <time>2026-07-07T11:57:14.000Z</time>
      </trkpt>
      <trkpt lat="45.15706" lon="5.92396">
        <ele>2067.75</ele>
        <time>2026-07-07T11:58:00.000Z</time>
      </trkpt>
      <trkpt lat="45.15703" lon="5.92371">
        <ele>2063.71</ele>
        <time>2026-07-07T11:58:46.000Z</time>
      </trkpt>
      <trkpt lat="45.15702" lon="5.92344">
        <ele>2057.96</ele>
        <time>2026-07-07T11:59:44.000Z</time>
      </trkpt>
      <trkpt lat="45.15699" lon="5.92318">
        <ele>2052.17</ele>
        <time>2026-07-07T12:00:34.000Z</time>
      </trkpt>
      <trkpt lat="45.15703" lon="5.92291">
        <ele>2044.84</ele>
        <time>2026-07-07T12:01:22.000Z</time>
      </trkpt>
      <trkpt lat="45.15703" lon="5.92264">
        <ele>2041.6</ele>
        <time>2026-07-07T12:01:52.000Z</time>
      </trkpt>
      <trkpt lat="45.15693" lon="5.92241">
        <ele>2039.02</ele>
        <time>2026-07-07T12:02:40.000Z</time>
      </trkpt>
      <trkpt lat="45.15694" lon="5.92215">
        <ele>2030.21</ele>
        <time>2026-07-07T12:03:24.000Z</time>
      </trkpt>
      <trkpt lat="45.15695" lon="5.92189">
        <ele>2022.26</ele>
        <time>2026-07-07T12:04:14.000Z</time>
      </trkpt>
      <trkpt lat="45.15691" lon="5.92163">
        <ele>2015.57</ele>
        <time>2026-07-07T12:08:41.999Z</time>
      </trkpt>
      <trkpt lat="45.15689" lon="5.92137">
        <ele>2010.23</ele>
        <time>2026-07-07T12:09:15.999Z</time>
      </trkpt>
      <trkpt lat="45.15683" lon="5.92111">
        <ele>2000.38</ele>
        <time>2026-07-07T12:09:57.999Z</time>
      </trkpt>
      <trkpt lat="45.15674" lon="5.92089">
        <ele>1994.14</ele>
        <time>2026-07-07T12:10:35.999Z</time>
      </trkpt>
      <trkpt lat="45.15662" lon="5.92067">
        <ele>1988.75</ele>
        <time>2026-07-07T12:11:05.999Z</time>
      </trkpt>
      <trkpt lat="45.1565" lon="5.92047">
        <ele>1983.93</ele>
        <time>2026-07-07T12:11:45.999Z</time>
      </trkpt>
      <trkpt lat="45.1564" lon="5.92025">
        <ele>1979.15</ele>
        <time>2026-07-07T12:12:43.999Z</time>
      </trkpt>
      <trkpt lat="45.15639" lon="5.91999">
        <ele>1976</ele>
        <time>2026-07-07T12:13:07.999Z</time>
      </trkpt>
      <trkpt lat="45.1564" lon="5.91973">
        <ele>1976.97</ele>
        <time>2026-07-07T12:13:31.999Z</time>
      </trkpt>
      <trkpt lat="45.15635" lon="5.91948">
        <ele>1970.59</ele>
        <time>2026-07-07T12:13:58.000Z</time>
      </trkpt>
      <trkpt lat="45.15639" lon="5.91924">
        <ele>1964.81</ele>
        <time>2026-07-07T12:15:04.000Z</time>
      </trkpt>
      <trkpt lat="45.1564" lon="5.91895">
        <ele>1958.19</ele>
        <time>2026-07-07T12:16:02.000Z</time>
      </trkpt>
      <trkpt lat="45.15653" lon="5.91877">
        <ele>1947.84</ele>
        <time>2026-07-07T12:16:46.000Z</time>
      </trkpt>
      <trkpt lat="45.15668" lon="5.91863">
        <ele>1951.38</ele>
        <time>2026-07-07T12:17:16.000Z</time>
      </trkpt>
      <trkpt lat="45.15681" lon="5.91842">
        <ele>1952.36</ele>
        <time>2026-07-07T12:17:46.000Z</time>
      </trkpt>
      <trkpt lat="45.1569" lon="5.9182">
        <ele>1952.94</ele>
        <time>2026-07-07T12:18:18.000Z</time>
      </trkpt>
      <trkpt lat="45.15701" lon="5.91799">
        <ele>1952.78</ele>
        <time>2026-07-07T12:18:44.000Z</time>
      </trkpt>
      <trkpt lat="45.15707" lon="5.91774">
        <ele>1958.79</ele>
        <time>2026-07-07T12:19:18.000Z</time>
      </trkpt>
      <trkpt lat="45.1572" lon="5.91755">
        <ele>1957.86</ele>
        <time>2026-07-07T12:19:52.000Z</time>
      </trkpt>
      <trkpt lat="45.15734" lon="5.91737">
        <ele>1961.71</ele>
        <time>2026-07-07T12:20:26.000Z</time>
      </trkpt>
      <trkpt lat="45.15742" lon="5.91713">
        <ele>1969.11</ele>
        <time>2026-07-07T12:20:56.000Z</time>
      </trkpt>
      <trkpt lat="45.1575" lon="5.9169">
        <ele>1974.5</ele>
        <time>2026-07-07T12:21:30.000Z</time>
      </trkpt>
      <trkpt lat="45.1575" lon="5.91664">
        <ele>1976.35</ele>
        <time>2026-07-07T12:22:00.000Z</time>
      </trkpt>
      <trkpt lat="45.1575" lon="5.91635">
        <ele>1981.34</ele>
        <time>2026-07-07T12:24:51.999Z</time>
      </trkpt>
      <trkpt lat="45.15748" lon="5.9161">
        <ele>1981.46</ele>
        <time>2026-07-07T12:25:11.999Z</time>
      </trkpt>
      <trkpt lat="45.15739" lon="5.91587">
        <ele>1979.6</ele>
        <time>2026-07-07T12:25:37.999Z</time>
      </trkpt>
      <trkpt lat="45.15735" lon="5.9156">
        <ele>1976.46</ele>
        <time>2026-07-07T12:26:03.999Z</time>
      </trkpt>
      <trkpt lat="45.15728" lon="5.91537">
        <ele>1973.74</ele>
        <time>2026-07-07T12:26:27.999Z</time>
      </trkpt>
      <trkpt lat="45.15741" lon="5.91517">
        <ele>1972.22</ele>
        <time>2026-07-07T12:29:35.999Z</time>
      </trkpt>
      <trkpt lat="45.15759" lon="5.91511">
        <ele>1966.01</ele>
        <time>2026-07-07T12:29:55.999Z</time>
      </trkpt>
      <trkpt lat="45.15774" lon="5.91497">
        <ele>1960.41</ele>
        <time>2026-07-07T12:30:17.999Z</time>
      </trkpt>
      <trkpt lat="45.15782" lon="5.91474">
        <ele>1956.32</ele>
        <time>2026-07-07T12:30:37.999Z</time>
      </trkpt>
      <trkpt lat="45.15787" lon="5.91449">
        <ele>1953.53</ele>
        <time>2026-07-07T12:30:56.000Z</time>
      </trkpt>
      <trkpt lat="45.15793" lon="5.91422">
        <ele>1951.5</ele>
        <time>2026-07-07T12:31:14.000Z</time>
      </trkpt>
      <trkpt lat="45.1581" lon="5.9141">
        <ele>1946.58</ele>
        <time>2026-07-07T12:32:12.000Z</time>
      </trkpt>
      <trkpt lat="45.15827" lon="5.91398">
        <ele>1942.31</ele>
        <time>2026-07-07T12:32:32.000Z</time>
      </trkpt>
      <trkpt lat="45.15844" lon="5.91387">
        <ele>1939.71</ele>
        <time>2026-07-07T12:32:48.000Z</time>
      </trkpt>
      <trkpt lat="45.15857" lon="5.91369">
        <ele>1936.09</ele>
        <time>2026-07-07T12:33:06.000Z</time>
      </trkpt>
      <trkpt lat="45.15872" lon="5.91354">
        <ele>1932.02</ele>
        <time>2026-07-07T12:33:28.000Z</time>
      </trkpt>
      <trkpt lat="45.15889" lon="5.91342">
        <ele>1925.66</ele>
        <time>2026-07-07T12:33:54.000Z</time>
      </trkpt>
      <trkpt lat="45.15907" lon="5.91333">
        <ele>1919.51</ele>
        <time>2026-07-07T12:34:18.000Z</time>
      </trkpt>
      <trkpt lat="45.1592" lon="5.91316">
        <ele>1907.69</ele>
        <time>2026-07-07T12:37:17.000Z</time>
      </trkpt>
      <trkpt lat="45.15934" lon="5.91297">
        <ele>1897.74</ele>
        <time>2026-07-07T12:38:07.000Z</time>
      </trkpt>
      <trkpt lat="45.15932" lon="5.91271">
        <ele>1888.83</ele>
        <time>2026-07-07T12:38:43.000Z</time>
      </trkpt>
      <trkpt lat="45.1594" lon="5.91247">
        <ele>1881.44</ele>
        <time>2026-07-07T12:39:13.000Z</time>
      </trkpt>
      <trkpt lat="45.15957" lon="5.91238">
        <ele>1871</ele>
        <time>2026-07-07T12:39:48.999Z</time>
      </trkpt>
      <trkpt lat="45.15977" lon="5.91236">
        <ele>1863.33</ele>
        <time>2026-07-07T12:40:20.999Z</time>
      </trkpt>
      <trkpt lat="45.15992" lon="5.91251">
        <ele>1858.23</ele>
        <time>2026-07-07T12:40:40.999Z</time>
      </trkpt>
      <trkpt lat="45.16012" lon="5.91253">
        <ele>1853.46</ele>
        <time>2026-07-07T12:41:02.999Z</time>
      </trkpt>
      <trkpt lat="45.16026" lon="5.9127">
        <ele>1848.96</ele>
        <time>2026-07-07T12:41:20.999Z</time>
      </trkpt>
      <trkpt lat="45.16044" lon="5.91276">
        <ele>1841.88</ele>
        <time>2026-07-07T12:41:48.999Z</time>
      </trkpt>
      <trkpt lat="45.16061" lon="5.91291">
        <ele>1833.05</ele>
        <time>2026-07-07T12:42:30.999Z</time>
      </trkpt>
      <trkpt lat="45.16077" lon="5.91305">
        <ele>1829.99</ele>
        <time>2026-07-07T12:42:44.999Z</time>
      </trkpt>
      <trkpt lat="45.16095" lon="5.91303">
        <ele>1827.19</ele>
        <time>2026-07-07T12:42:58.999Z</time>
      </trkpt>
      <trkpt lat="45.16114" lon="5.91299">
        <ele>1821.43</ele>
        <time>2026-07-07T12:43:20.999Z</time>
      </trkpt>
      <trkpt lat="45.16133" lon="5.91294">
        <ele>1815.25</ele>
        <time>2026-07-07T12:43:44.999Z</time>
      </trkpt>
      <trkpt lat="45.16152" lon="5.913">
        <ele>1809.18</ele>
        <time>2026-07-07T12:44:08.999Z</time>
      </trkpt>
      <trkpt lat="45.16169" lon="5.91311">
        <ele>1804.27</ele>
        <time>2026-07-07T12:44:30.999Z</time>
      </trkpt>
      <trkpt lat="45.16186" lon="5.91317">
        <ele>1802.31</ele>
        <time>2026-07-07T12:44:44.999Z</time>
      </trkpt>
      <trkpt lat="45.16205" lon="5.91326">
        <ele>1800.27</ele>
        <time>2026-07-07T12:45:00.999Z</time>
      </trkpt>
      <trkpt lat="45.16225" lon="5.91333">
        <ele>1797.79</ele>
        <time>2026-07-07T12:45:18.999Z</time>
      </trkpt>
      <trkpt lat="45.16243" lon="5.91324">
        <ele>1795.66</ele>
        <time>2026-07-07T12:45:36.999Z</time>
      </trkpt>
      <trkpt lat="45.16258" lon="5.91309">
        <ele>1792.5</ele>
        <time>2026-07-07T12:45:54.999Z</time>
      </trkpt>
      <trkpt lat="45.16272" lon="5.91291">
        <ele>1788.79</ele>
        <time>2026-07-07T12:46:14.999Z</time>
      </trkpt>
      <trkpt lat="45.16288" lon="5.91277">
        <ele>1787.81</ele>
        <time>2026-07-07T12:46:28.999Z</time>
      </trkpt>
      <trkpt lat="45.16303" lon="5.91259">
        <ele>1786.07</ele>
        <time>2026-07-07T12:46:44.999Z</time>
      </trkpt>
      <trkpt lat="45.16319" lon="5.91243">
        <ele>1782.32</ele>
        <time>2026-07-07T12:47:02.999Z</time>
      </trkpt>
      <trkpt lat="45.16337" lon="5.91237">
        <ele>1779.29</ele>
        <time>2026-07-07T12:47:38.999Z</time>
      </trkpt>
      <trkpt lat="45.16355" lon="5.91229">
        <ele>1775.08</ele>
        <time>2026-07-07T12:48:01.000Z</time>
      </trkpt>
      <trkpt lat="45.16373" lon="5.91217">
        <ele>1772.27</ele>
        <time>2026-07-07T12:48:19.000Z</time>
      </trkpt>
      <trkpt lat="45.16393" lon="5.91225">
        <ele>1770.81</ele>
        <time>2026-07-07T12:48:45.000Z</time>
      </trkpt>
      <trkpt lat="45.16411" lon="5.9123">
        <ele>1767.57</ele>
        <time>2026-07-07T12:49:03.000Z</time>
      </trkpt>
      <trkpt lat="45.16414" lon="5.91204">
        <ele>1759.32</ele>
        <time>2026-07-07T12:49:51.000Z</time>
      </trkpt>
      <trkpt lat="45.16416" lon="5.91178">
        <ele>1753.82</ele>
        <time>2026-07-07T12:50:23.000Z</time>
      </trkpt>
      <trkpt lat="45.16414" lon="5.91152">
        <ele>1746.07</ele>
        <time>2026-07-07T12:51:03.000Z</time>
      </trkpt>
      <trkpt lat="45.16397" lon="5.91143">
        <ele>1743.1</ele>
        <time>2026-07-07T12:51:21.000Z</time>
      </trkpt>
      <trkpt lat="45.1638" lon="5.91134">
        <ele>1739.6</ele>
        <time>2026-07-07T12:51:45.000Z</time>
      </trkpt>
      <trkpt lat="45.16385" lon="5.91109">
        <ele>1726.72</ele>
        <time>2026-07-07T12:52:53.000Z</time>
      </trkpt>
      <trkpt lat="45.16372" lon="5.9109">
        <ele>1717.2</ele>
        <time>2026-07-07T12:53:45.000Z</time>
      </trkpt>
      <trkpt lat="45.16354" lon="5.91092">
        <ele>1714.18</ele>
        <time>2026-07-07T12:54:01.000Z</time>
      </trkpt>
      <trkpt lat="45.16366" lon="5.91071">
        <ele>1705.69</ele>
        <time>2026-07-07T12:54:49.000Z</time>
      </trkpt>
      <trkpt lat="45.16351" lon="5.91056">
        <ele>1698.33</ele>
        <time>2026-07-07T12:55:35.000Z</time>
      </trkpt>
      <trkpt lat="45.16361" lon="5.91032">
        <ele>1690.91</ele>
        <time>2026-07-07T12:56:15.000Z</time>
      </trkpt>
      <trkpt lat="45.16371" lon="5.9101">
        <ele>1687.88</ele>
        <time>2026-07-07T12:56:32.999Z</time>
      </trkpt>
      <trkpt lat="45.16385" lon="5.90992">
        <ele>1684.16</ele>
        <time>2026-07-07T12:56:54.999Z</time>
      </trkpt>
      <trkpt lat="45.16401" lon="5.90976">
        <ele>1681.29</ele>
        <time>2026-07-07T12:57:12.999Z</time>
      </trkpt>
      <trkpt lat="45.16417" lon="5.90963">
        <ele>1678.5</ele>
        <time>2026-07-07T12:57:30.999Z</time>
      </trkpt>
      <trkpt lat="45.16408" lon="5.9094">
        <ele>1673.95</ele>
        <time>2026-07-07T12:58:04.999Z</time>
      </trkpt>
      <trkpt lat="45.16422" lon="5.90921">
        <ele>1664.2</ele>
        <time>2026-07-07T12:58:56.999Z</time>
      </trkpt>
      <trkpt lat="45.1644" lon="5.90909">
        <ele>1661.31</ele>
        <time>2026-07-07T12:59:18.999Z</time>
      </trkpt>
      <trkpt lat="45.1646" lon="5.90905">
        <ele>1659.02</ele>
        <time>2026-07-07T12:59:38.999Z</time>
      </trkpt>
      <trkpt lat="45.16443" lon="5.9089">
        <ele>1652.79</ele>
        <time>2026-07-07T13:00:06.999Z</time>
      </trkpt>
      <trkpt lat="45.16431" lon="5.90869">
        <ele>1645.68</ele>
        <time>2026-07-07T13:00:34.999Z</time>
      </trkpt>
      <trkpt lat="45.16413" lon="5.90864">
        <ele>1646.16</ele>
        <time>2026-07-07T13:00:50.999Z</time>
      </trkpt>
      <trkpt lat="45.16423" lon="5.90841">
        <ele>1640.44</ele>
        <time>2026-07-07T13:01:18.999Z</time>
      </trkpt>
      <trkpt lat="45.16439" lon="5.90829">
        <ele>1637.69</ele>
        <time>2026-07-07T13:01:44.999Z</time>
      </trkpt>
      <trkpt lat="45.16436" lon="5.90803">
        <ele>1627.22</ele>
        <time>2026-07-07T13:02:40.999Z</time>
      </trkpt>
      <trkpt lat="45.16425" lon="5.90783">
        <ele>1624.24</ele>
        <time>2026-07-07T13:02:52.999Z</time>
      </trkpt>
      <trkpt lat="45.16423" lon="5.90757">
        <ele>1620.17</ele>
        <time>2026-07-07T13:03:22.999Z</time>
      </trkpt>
      <trkpt lat="45.1644" lon="5.90765">
        <ele>1616.02</ele>
        <time>2026-07-07T13:03:44.999Z</time>
      </trkpt>
      <trkpt lat="45.16432" lon="5.90737">
        <ele>1607.69</ele>
        <time>2026-07-07T13:05:15.000Z</time>
      </trkpt>
      <trkpt lat="45.16422" lon="5.90714">
        <ele>1604.95</ele>
        <time>2026-07-07T13:05:27.000Z</time>
      </trkpt>
      <trkpt lat="45.16403" lon="5.90711">
        <ele>1603.49</ele>
        <time>2026-07-07T13:05:45.000Z</time>
      </trkpt>
      <trkpt lat="45.16409" lon="5.90684">
        <ele>1598.42</ele>
        <time>2026-07-07T13:06:15.000Z</time>
      </trkpt>
      <trkpt lat="45.16427" lon="5.90683">
        <ele>1594.82</ele>
        <time>2026-07-07T13:06:43.000Z</time>
      </trkpt>
      <trkpt lat="45.16445" lon="5.90685">
        <ele>1592.24</ele>
        <time>2026-07-07T13:07:05.000Z</time>
      </trkpt>
      <trkpt lat="45.16462" lon="5.90696">
        <ele>1588.6</ele>
        <time>2026-07-07T13:07:21.000Z</time>
      </trkpt>
      <trkpt lat="45.16476" lon="5.90711">
        <ele>1586.12</ele>
        <time>2026-07-07T13:07:37.000Z</time>
      </trkpt>
      <trkpt lat="45.16496" lon="5.90718">
        <ele>1583.12</ele>
        <time>2026-07-07T13:07:57.000Z</time>
      </trkpt>
      <trkpt lat="45.16488" lon="5.90695">
        <ele>1578.32</ele>
        <time>2026-07-07T13:08:25.000Z</time>
      </trkpt>
      <trkpt lat="45.16479" lon="5.9067">
        <ele>1574.21</ele>
        <time>2026-07-07T13:08:47.000Z</time>
      </trkpt>
      <trkpt lat="45.16464" lon="5.90655">
        <ele>1572.04</ele>
        <time>2026-07-07T13:09:05.000Z</time>
      </trkpt>
      <trkpt lat="45.16455" lon="5.90632">
        <ele>1567.11</ele>
        <time>2026-07-07T13:09:27.000Z</time>
      </trkpt>
      <trkpt lat="45.16447" lon="5.90608">
        <ele>1565.3</ele>
        <time>2026-07-07T13:09:39.000Z</time>
      </trkpt>
      <trkpt lat="45.16431" lon="5.90592">
        <ele>1563.77</ele>
        <time>2026-07-07T13:09:55.000Z</time>
      </trkpt>
      <trkpt lat="45.16415" lon="5.90578">
        <ele>1559.85</ele>
        <time>2026-07-07T13:10:17.000Z</time>
      </trkpt>
      <trkpt lat="45.16398" lon="5.90569">
        <ele>1557.86</ele>
        <time>2026-07-07T13:10:39.000Z</time>
      </trkpt>
      <trkpt lat="45.16377" lon="5.90574">
        <ele>1553.96</ele>
        <time>2026-07-07T13:10:55.000Z</time>
      </trkpt>
      <trkpt lat="45.16361" lon="5.90589">
        <ele>1552.02</ele>
        <time>2026-07-07T13:11:11.000Z</time>
      </trkpt>
      <trkpt lat="45.16348" lon="5.90613">
        <ele>1548.23</ele>
        <time>2026-07-07T13:11:33.000Z</time>
      </trkpt>
      <trkpt lat="45.16336" lon="5.90634">
        <ele>1543.49</ele>
        <time>2026-07-07T13:11:49.000Z</time>
      </trkpt>
      <trkpt lat="45.16325" lon="5.90654">
        <ele>1541.18</ele>
        <time>2026-07-07T13:12:01.000Z</time>
      </trkpt>
      <trkpt lat="45.16328" lon="5.90628">
        <ele>1536.02</ele>
        <time>2026-07-07T13:12:37.000Z</time>
      </trkpt>
      <trkpt lat="45.1633" lon="5.90602">
        <ele>1534.02</ele>
        <time>2026-07-07T13:12:55.000Z</time>
      </trkpt>
      <trkpt lat="45.16334" lon="5.90571">
        <ele>1533.13</ele>
        <time>2026-07-07T13:13:09.000Z</time>
      </trkpt>
      <trkpt lat="45.1634" lon="5.90545">
        <ele>1531.1</ele>
        <time>2026-07-07T13:13:25.000Z</time>
      </trkpt>
      <trkpt lat="45.16353" lon="5.90525">
        <ele>1530</ele>
        <time>2026-07-07T13:13:40.999Z</time>
      </trkpt>
      <trkpt lat="45.16369" lon="5.90515">
        <ele>1528.4</ele>
        <time>2026-07-07T13:13:58.999Z</time>
      </trkpt>
      <trkpt lat="45.16388" lon="5.90507">
        <ele>1525.42</ele>
        <time>2026-07-07T13:14:16.999Z</time>
      </trkpt>
      <trkpt lat="45.16406" lon="5.90499">
        <ele>1523.54</ele>
        <time>2026-07-07T13:14:32.999Z</time>
      </trkpt>
      <trkpt lat="45.16426" lon="5.90492">
        <ele>1521.73</ele>
        <time>2026-07-07T13:14:50.999Z</time>
      </trkpt>
      <trkpt lat="45.16444" lon="5.90487">
        <ele>1520.39</ele>
        <time>2026-07-07T13:15:06.999Z</time>
      </trkpt>
      <trkpt lat="45.16467" lon="5.90482">
        <ele>1518.04</ele>
        <time>2026-07-07T13:15:26.999Z</time>
      </trkpt>
      <trkpt lat="45.16487" lon="5.90487">
        <ele>1517.38</ele>
        <time>2026-07-07T13:15:46.999Z</time>
      </trkpt>
      <trkpt lat="45.16504" lon="5.905">
        <ele>1514.98</ele>
        <time>2026-07-07T13:16:00.999Z</time>
      </trkpt>
      <trkpt lat="45.16513" lon="5.90523">
        <ele>1513.19</ele>
        <time>2026-07-07T13:16:18.999Z</time>
      </trkpt>
      <trkpt lat="45.16527" lon="5.9054">
        <ele>1511.28</ele>
        <time>2026-07-07T13:16:38.999Z</time>
      </trkpt>
      <trkpt lat="45.16544" lon="5.90551">
        <ele>1508.74</ele>
        <time>2026-07-07T13:17:00.999Z</time>
      </trkpt>
      <trkpt lat="45.16563" lon="5.90557">
        <ele>1507.17</ele>
        <time>2026-07-07T13:17:18.999Z</time>
      </trkpt>
      <trkpt lat="45.16581" lon="5.90566">
        <ele>1505.53</ele>
        <time>2026-07-07T13:17:36.999Z</time>
      </trkpt>
      <trkpt lat="45.166" lon="5.90575">
        <ele>1503.78</ele>
        <time>2026-07-07T13:17:54.999Z</time>
      </trkpt>
      <trkpt lat="45.16616" lon="5.90588">
        <ele>1501.77</ele>
        <time>2026-07-07T13:18:12.999Z</time>
      </trkpt>
      <trkpt lat="45.16635" lon="5.90592">
        <ele>1500.08</ele>
        <time>2026-07-07T13:18:30.999Z</time>
      </trkpt>
      <trkpt lat="45.16656" lon="5.90594">
        <ele>1498.93</ele>
        <time>2026-07-07T13:18:54.999Z</time>
      </trkpt>
      <trkpt lat="45.16674" lon="5.90594">
        <ele>1497.63</ele>
        <time>2026-07-07T13:19:12.999Z</time>
      </trkpt>
      <trkpt lat="45.16692" lon="5.90595">
        <ele>1496.37</ele>
        <time>2026-07-07T13:19:32.999Z</time>
      </trkpt>
      <trkpt lat="45.1671" lon="5.90598">
        <ele>1494.46</ele>
        <time>2026-07-07T13:19:48.999Z</time>
      </trkpt>
      <trkpt lat="45.16728" lon="5.90612">
        <ele>1493.68</ele>
        <time>2026-07-07T13:20:12.999Z</time>
      </trkpt>
      <trkpt lat="45.16744" lon="5.90628">
        <ele>1491.17</ele>
        <time>2026-07-07T13:20:28.999Z</time>
      </trkpt>
      <trkpt lat="45.16759" lon="5.90643">
        <ele>1489.1</ele>
        <time>2026-07-07T13:20:44.999Z</time>
      </trkpt>
      <trkpt lat="45.16774" lon="5.90659">
        <ele>1486.45</ele>
        <time>2026-07-07T13:21:04.999Z</time>
      </trkpt>
      <trkpt lat="45.16787" lon="5.90677">
        <ele>1484.13</ele>
        <time>2026-07-07T13:21:22.999Z</time>
      </trkpt>
      <trkpt lat="45.16802" lon="5.90695">
        <ele>1482.93</ele>
        <time>2026-07-07T13:21:42.999Z</time>
      </trkpt>
      <trkpt lat="45.16816" lon="5.90712">
        <ele>1481.55</ele>
        <time>2026-07-07T13:22:02.999Z</time>
      </trkpt>
      <trkpt lat="45.16837" lon="5.90718">
        <ele>1479.19</ele>
        <time>2026-07-07T13:22:23.000Z</time>
      </trkpt>
      <trkpt lat="45.16856" lon="5.90727">
        <ele>1477.84</ele>
        <time>2026-07-07T13:22:43.000Z</time>
      </trkpt>
      <trkpt lat="45.16873" lon="5.9074">
        <ele>1475.34</ele>
        <time>2026-07-07T13:23:01.000Z</time>
      </trkpt>
      <trkpt lat="45.16891" lon="5.90748">
        <ele>1474.07</ele>
        <time>2026-07-07T13:23:17.000Z</time>
      </trkpt>
      <trkpt lat="45.16909" lon="5.90759">
        <ele>1472.38</ele>
        <time>2026-07-07T13:23:39.000Z</time>
      </trkpt>
      <trkpt lat="45.16927" lon="5.90757">
        <ele>1470.76</ele>
        <time>2026-07-07T13:23:55.000Z</time>
      </trkpt>
      <trkpt lat="45.16944" lon="5.90743">
        <ele>1469.77</ele>
        <time>2026-07-07T13:24:11.000Z</time>
      </trkpt>
      <trkpt lat="45.16959" lon="5.90727">
        <ele>1467.23</ele>
        <time>2026-07-07T13:24:31.000Z</time>
      </trkpt>
      <trkpt lat="45.16978" lon="5.90728">
        <ele>1464.82</ele>
        <time>2026-07-07T13:24:51.000Z</time>
      </trkpt>
      <trkpt lat="45.16998" lon="5.90726">
        <ele>1462.89</ele>
        <time>2026-07-07T13:25:09.000Z</time>
      </trkpt>
      <trkpt lat="45.17017" lon="5.90729">
        <ele>1460.9</ele>
        <time>2026-07-07T13:25:29.000Z</time>
      </trkpt>
      <trkpt lat="45.17034" lon="5.90741">
        <ele>1459.11</ele>
        <time>2026-07-07T13:25:49.000Z</time>
      </trkpt>
      <trkpt lat="45.17049" lon="5.90755">
        <ele>1456.69</ele>
        <time>2026-07-07T13:26:07.000Z</time>
      </trkpt>
      <trkpt lat="45.17064" lon="5.90773">
        <ele>1455.54</ele>
        <time>2026-07-07T13:26:25.000Z</time>
      </trkpt>
      <trkpt lat="45.17078" lon="5.90795">
        <ele>1452.22</ele>
        <time>2026-07-07T13:26:43.000Z</time>
      </trkpt>
      <trkpt lat="45.17096" lon="5.90797">
        <ele>1451.35</ele>
        <time>2026-07-07T13:27:03.000Z</time>
      </trkpt>
      <trkpt lat="45.17114" lon="5.90784">
        <ele>1450.18</ele>
        <time>2026-07-07T13:27:19.000Z</time>
      </trkpt>
      <trkpt lat="45.17131" lon="5.90769">
        <ele>1448.11</ele>
        <time>2026-07-07T13:27:39.000Z</time>
      </trkpt>
      <trkpt lat="45.17146" lon="5.90755">
        <ele>1445.64</ele>
        <time>2026-07-07T13:27:57.000Z</time>
      </trkpt>
      <trkpt lat="45.17164" lon="5.90749">
        <ele>1443</ele>
        <time>2026-07-07T13:28:17.000Z</time>
      </trkpt>
      <trkpt lat="45.17183" lon="5.90742">
        <ele>1440.99</ele>
        <time>2026-07-07T13:28:37.000Z</time>
      </trkpt>
      <trkpt lat="45.17201" lon="5.90739">
        <ele>1438.56</ele>
        <time>2026-07-07T13:28:55.000Z</time>
      </trkpt>
      <trkpt lat="45.1722" lon="5.90734">
        <ele>1436.9</ele>
        <time>2026-07-07T13:29:17.000Z</time>
      </trkpt>
      <trkpt lat="45.17239" lon="5.90727">
        <ele>1435.44</ele>
        <time>2026-07-07T13:29:35.000Z</time>
      </trkpt>
      <trkpt lat="45.17258" lon="5.90719">
        <ele>1433.08</ele>
        <time>2026-07-07T13:29:57.000Z</time>
      </trkpt>
      <trkpt lat="45.17275" lon="5.90712">
        <ele>1431.3</ele>
        <time>2026-07-07T13:30:15.000Z</time>
      </trkpt>
      <trkpt lat="45.17294" lon="5.90709">
        <ele>1429.6</ele>
        <time>2026-07-07T13:30:35.000Z</time>
      </trkpt>
      <trkpt lat="45.17312" lon="5.90706">
        <ele>1428.49</ele>
        <time>2026-07-07T13:30:52.999Z</time>
      </trkpt>
      <trkpt lat="45.1733" lon="5.907">
        <ele>1425.92</ele>
        <time>2026-07-07T13:31:10.999Z</time>
      </trkpt>
      <trkpt lat="45.17348" lon="5.90698">
        <ele>1424.61</ele>
        <time>2026-07-07T13:31:38.999Z</time>
      </trkpt>
      <trkpt lat="45.17367" lon="5.90697">
        <ele>1422.24</ele>
        <time>2026-07-07T13:31:56.999Z</time>
      </trkpt>
      <trkpt lat="45.17386" lon="5.90695">
        <ele>1420.35</ele>
        <time>2026-07-07T13:32:14.999Z</time>
      </trkpt>
      <trkpt lat="45.17406" lon="5.9069">
        <ele>1418.58</ele>
        <time>2026-07-07T13:32:32.999Z</time>
      </trkpt>
      <trkpt lat="45.17425" lon="5.9069">
        <ele>1415.64</ele>
        <time>2026-07-07T13:32:52.999Z</time>
      </trkpt>
      <trkpt lat="45.17442" lon="5.90699">
        <ele>1413.71</ele>
        <time>2026-07-07T13:33:10.999Z</time>
      </trkpt>
      <trkpt lat="45.17458" lon="5.9071">
        <ele>1411.5</ele>
        <time>2026-07-07T13:33:26.999Z</time>
      </trkpt>
      <trkpt lat="45.17478" lon="5.90714">
        <ele>1409.3</ele>
        <time>2026-07-07T13:33:46.999Z</time>
      </trkpt>
      <trkpt lat="45.17495" lon="5.90706">
        <ele>1408.82</ele>
        <time>2026-07-07T13:34:04.999Z</time>
      </trkpt>
      <trkpt lat="45.17514" lon="5.90701">
        <ele>1407.18</ele>
        <time>2026-07-07T13:34:22.999Z</time>
      </trkpt>
      <trkpt lat="45.17533" lon="5.90708">
        <ele>1404.68</ele>
        <time>2026-07-07T13:34:42.999Z</time>
      </trkpt>
      <trkpt lat="45.17549" lon="5.90718">
        <ele>1402.8</ele>
        <time>2026-07-07T13:35:00.999Z</time>
      </trkpt>
      <trkpt lat="45.17566" lon="5.90733">
        <ele>1399.95</ele>
        <time>2026-07-07T13:35:16.999Z</time>
      </trkpt>
      <trkpt lat="45.17583" lon="5.90747">
        <ele>1398.68</ele>
        <time>2026-07-07T13:35:34.999Z</time>
      </trkpt>
      <trkpt lat="45.17596" lon="5.90765">
        <ele>1397.19</ele>
        <time>2026-07-07T13:35:52.999Z</time>
      </trkpt>
      <trkpt lat="45.17602" lon="5.9079">
        <ele>1395.69</ele>
        <time>2026-07-07T13:36:06.999Z</time>
      </trkpt>
      <trkpt lat="45.17608" lon="5.90817">
        <ele>1393.8</ele>
        <time>2026-07-07T13:36:26.999Z</time>
      </trkpt>
      <trkpt lat="45.17613" lon="5.90842">
        <ele>1390.49</ele>
        <time>2026-07-07T13:36:46.999Z</time>
      </trkpt>
      <trkpt lat="45.17632" lon="5.90849">
        <ele>1388.27</ele>
        <time>2026-07-07T13:37:02.999Z</time>
      </trkpt>
      <trkpt lat="45.1765" lon="5.90852">
        <ele>1386.58</ele>
        <time>2026-07-07T13:37:24.999Z</time>
      </trkpt>
      <trkpt lat="45.1767" lon="5.90857">
        <ele>1383.73</ele>
        <time>2026-07-07T13:37:40.999Z</time>
      </trkpt>
      <trkpt lat="45.17686" lon="5.90872">
        <ele>1382.06</ele>
        <time>2026-07-07T13:37:56.999Z</time>
      </trkpt>
      <trkpt lat="45.177" lon="5.90889">
        <ele>1380.02</ele>
        <time>2026-07-07T13:38:11.999Z</time>
      </trkpt>
      <trkpt lat="45.17714" lon="5.90905">
        <ele>1378.76</ele>
        <time>2026-07-07T13:38:29.999Z</time>
      </trkpt>
      <trkpt lat="45.1773" lon="5.90919">
        <ele>1376.63</ele>
        <time>2026-07-07T13:38:47.999Z</time>
      </trkpt>
      <trkpt lat="45.17745" lon="5.90936">
        <ele>1374.37</ele>
        <time>2026-07-07T13:39:13.999Z</time>
      </trkpt>
      <trkpt lat="45.17759" lon="5.90953">
        <ele>1372.64</ele>
        <time>2026-07-07T13:39:32.000Z</time>
      </trkpt>
      <trkpt lat="45.17777" lon="5.90961">
        <ele>1369.26</ele>
        <time>2026-07-07T13:39:50.000Z</time>
      </trkpt>
      <trkpt lat="45.17793" lon="5.90974">
        <ele>1368.96</ele>
        <time>2026-07-07T13:40:06.000Z</time>
      </trkpt>
      <trkpt lat="45.17811" lon="5.90978">
        <ele>1367.16</ele>
        <time>2026-07-07T13:40:22.000Z</time>
      </trkpt>
    </trkseg>
  </trk>
</gpx>